sensor_id;sensor_type;location;lat;lon;timestamp;P1;durP1;ratioP1;P2;durP2;ratioP2
16199;SDS011;8207;52.494;4.654;2023-03-01T00:01:00;14.87;;;11.43;;
16199;SDS011;8207;52.494;4.654;2023-03-01T00:03:27;16.10;;;11.87;;
16199;SDS011;8207;52.494;4.654;2023-03-01T00:05:54;16.13;;;11.27;;
16199;SDS011;8207;52.494;4.654;2023-03-01T00:08:21;15.87;;;12.53;;
16199;SDS011;8207;52.494;4.654;2023-03-01T00:10:48;14.07;;;11.57;;
16199;SDS011;8207;52.494;4.654;2023-03-01T00:13:14;13.63;;;10.87;;
16199;SDS011;8207;52.494;4.654;2023-03-01T00:15:43;16.53;;;11.97;;
16199;SDS011;8207;52.494;4.654;2023-03-01T00:18:10;16.83;;;11.10;;
16199;SDS011;8207;52.494;4.654;2023-03-01T00:20:36;15.27;;;11.50;;
16199;SDS011;8207;52.494;4.654;2023-03-01T00:23:03;18.07;;;12.00;;
16199;SDS011;8207;52.494;4.654;2023-03-01T00:25:30;14.80;;;11.03;;
16199;SDS011;8207;52.494;4.654;2023-03-01T00:27:58;15.17;;;10.40;;
16199;SDS011;8207;52.494;4.654;2023-03-01T00:30:24;14.23;;;12.03;;
16199;SDS011;8207;52.494;4.654;2023-03-01T00:32:53;18.43;;;11.67;;
16199;SDS011;8207;52.494;4.654;2023-03-01T00:35:20;17.90;;;12.13;;
16199;SDS011;8207;52.494;4.654;2023-03-01T00:37:47;15.97;;;12.30;;
16199;SDS011;8207;52.494;4.654;2023-03-01T00:40:18;14.87;;;11.60;;
16199;SDS011;8207;52.494;4.654;2023-03-01T00:42:45;14.33;;;11.07;;
16199;SDS011;8207;52.494;4.654;2023-03-01T00:45:12;14.47;;;10.67;;
16199;SDS011;8207;52.494;4.654;2023-03-01T00:47:39;15.00;;;11.80;;
16199;SDS011;8207;52.494;4.654;2023-03-01T00:50:08;15.87;;;10.90;;
16199;SDS011;8207;52.494;4.654;2023-03-01T00:52:36;15.47;;;10.37;;
16199;SDS011;8207;52.494;4.654;2023-03-01T00:55:03;14.67;;;10.80;;
16199;SDS011;8207;52.494;4.654;2023-03-01T00:57:31;13.67;;;10.17;;
16199;SDS011;8207;52.494;4.654;2023-03-01T00:59:58;14.87;;;11.00;;
16199;SDS011;8207;52.494;4.654;2023-03-01T01:02:25;14.33;;;10.57;;
16199;SDS011;8207;52.494;4.654;2023-03-01T01:04:52;13.20;;;9.90;;
16199;SDS011;8207;52.494;4.654;2023-03-01T01:07:20;20.03;;;12.33;;
16199;SDS011;8207;52.494;4.654;2023-03-01T01:09:47;16.60;;;11.97;;
16199;SDS011;8207;52.494;4.654;2023-03-01T01:12:14;15.73;;;11.67;;
16199;SDS011;8207;52.494;4.654;2023-03-01T01:14:41;15.13;;;10.23;;
16199;SDS011;8207;52.494;4.654;2023-03-01T01:17:08;14.67;;;10.80;;
16199;SDS011;8207;52.494;4.654;2023-03-01T01:19:35;14.10;;;11.43;;
16199;SDS011;8207;52.494;4.654;2023-03-01T01:22:02;14.43;;;11.10;;
16199;SDS011;8207;52.494;4.654;2023-03-01T01:24:30;13.70;;;10.33;;
16199;SDS011;8207;52.494;4.654;2023-03-01T01:26:57;16.07;;;11.83;;
16199;SDS011;8207;52.494;4.654;2023-03-01T01:29:24;15.63;;;10.87;;
16199;SDS011;8207;52.494;4.654;2023-03-01T01:31:51;16.57;;;11.77;;
16199;SDS011;8207;52.494;4.654;2023-03-01T01:34:19;16.03;;;11.07;;
16199;SDS011;8207;52.494;4.654;2023-03-01T01:36:48;15.30;;;11.63;;
16199;SDS011;8207;52.494;4.654;2023-03-01T01:39:15;14.57;;;10.90;;
16199;SDS011;8207;52.494;4.654;2023-03-01T01:41:44;14.53;;;11.10;;
16199;SDS011;8207;52.494;4.654;2023-03-01T01:44:15;14.67;;;11.03;;
16199;SDS011;8207;52.494;4.654;2023-03-01T01:46:45;13.17;;;10.37;;
16199;SDS011;8207;52.494;4.654;2023-03-01T01:49:25;13.00;;;9.47;;
16199;SDS011;8207;52.494;4.654;2023-03-01T01:51:59;16.40;;;10.63;;
16199;SDS011;8207;52.494;4.654;2023-03-01T01:54:31;15.20;;;11.07;;
16199;SDS011;8207;52.494;4.654;2023-03-01T01:57:07;13.87;;;10.70;;
16199;SDS011;8207;52.494;4.654;2023-03-01T01:59:37;14.30;;;10.77;;
16199;SDS011;8207;52.494;4.654;2023-03-01T02:02:06;14.80;;;11.07;;
16199;SDS011;8207;52.494;4.654;2023-03-01T02:04:33;16.47;;;12.60;;
16199;SDS011;8207;52.494;4.654;2023-03-01T02:07:01;17.53;;;12.77;;
16199;SDS011;8207;52.494;4.654;2023-03-01T02:09:33;19.57;;;11.97;;
16199;SDS011;8207;52.494;4.654;2023-03-01T02:12:02;15.30;;;11.70;;
16199;SDS011;8207;52.494;4.654;2023-03-01T02:14:31;19.03;;;13.00;;
16199;SDS011;8207;52.494;4.654;2023-03-01T02:16:58;16.90;;;11.73;;
16199;SDS011;8207;52.494;4.654;2023-03-01T02:19:28;18.70;;;12.87;;
16199;SDS011;8207;52.494;4.654;2023-03-01T02:22:06;17.87;;;12.93;;
16199;SDS011;8207;52.494;4.654;2023-03-01T02:24:45;17.13;;;12.60;;
16199;SDS011;8207;52.494;4.654;2023-03-01T02:27:20;18.33;;;12.47;;
16199;SDS011;8207;52.494;4.654;2023-03-01T02:29:53;19.93;;;13.53;;
16199;SDS011;8207;52.494;4.654;2023-03-01T02:32:20;17.60;;;12.70;;
16199;SDS011;8207;52.494;4.654;2023-03-01T02:34:50;14.63;;;12.13;;
16199;SDS011;8207;52.494;4.654;2023-03-01T02:37:18;19.00;;;12.60;;
16199;SDS011;8207;52.494;4.654;2023-03-01T02:39:50;18.13;;;12.20;;
16199;SDS011;8207;52.494;4.654;2023-03-01T02:42:23;16.23;;;11.93;;
16199;SDS011;8207;52.494;4.654;2023-03-01T02:44:56;16.00;;;11.47;;
16199;SDS011;8207;52.494;4.654;2023-03-01T02:47:23;17.73;;;12.60;;
16199;SDS011;8207;52.494;4.654;2023-03-01T02:49:50;17.90;;;12.57;;
16199;SDS011;8207;52.494;4.654;2023-03-01T02:52:22;16.97;;;12.10;;
16199;SDS011;8207;52.494;4.654;2023-03-01T02:55:01;14.50;;;10.77;;
16199;SDS011;8207;52.494;4.654;2023-03-01T02:57:31;14.90;;;10.47;;
16199;SDS011;8207;52.494;4.654;2023-03-01T03:00:03;18.37;;;13.17;;
16199;SDS011;8207;52.494;4.654;2023-03-01T03:02:33;16.87;;;12.93;;
16199;SDS011;8207;52.494;4.654;2023-03-01T03:05:05;16.03;;;11.57;;
16199;SDS011;8207;52.494;4.654;2023-03-01T03:07:34;19.30;;;12.87;;
16199;SDS011;8207;52.494;4.654;2023-03-01T03:10:03;18.13;;;13.17;;
16199;SDS011;8207;52.494;4.654;2023-03-01T03:12:32;15.93;;;11.87;;
16199;SDS011;8207;52.494;4.654;2023-03-01T03:14:59;20.13;;;13.67;;
16199;SDS011;8207;52.494;4.654;2023-03-01T03:17:27;20.77;;;14.13;;
16199;SDS011;8207;52.494;4.654;2023-03-01T03:19:54;18.90;;;13.10;;
16199;SDS011;8207;52.494;4.654;2023-03-01T03:22:21;17.67;;;12.87;;
16199;SDS011;8207;52.494;4.654;2023-03-01T03:24:47;19.20;;;13.93;;
16199;SDS011;8207;52.494;4.654;2023-03-01T03:27:14;23.83;;;14.33;;
16199;SDS011;8207;52.494;4.654;2023-03-01T03:29:41;22.07;;;14.57;;
16199;SDS011;8207;52.494;4.654;2023-03-01T03:32:08;21.37;;;14.37;;
16199;SDS011;8207;52.494;4.654;2023-03-01T03:34:36;21.10;;;14.03;;
16199;SDS011;8207;52.494;4.654;2023-03-01T03:37:03;19.87;;;13.70;;
16199;SDS011;8207;52.494;4.654;2023-03-01T03:39:50;19.63;;;14.07;;
16199;SDS011;8207;52.494;4.654;2023-03-01T03:42:19;19.13;;;13.97;;
16199;SDS011;8207;52.494;4.654;2023-03-01T03:44:47;21.03;;;14.57;;
16199;SDS011;8207;52.494;4.654;2023-03-01T03:47:14;21.17;;;14.57;;
16199;SDS011;8207;52.494;4.654;2023-03-01T03:49:42;24.00;;;15.87;;
16199;SDS011;8207;52.494;4.654;2023-03-01T03:52:09;20.23;;;15.03;;
16199;SDS011;8207;52.494;4.654;2023-03-01T03:54:39;22.60;;;14.73;;
16199;SDS011;8207;52.494;4.654;2023-03-01T03:57:06;21.20;;;14.23;;
16199;SDS011;8207;52.494;4.654;2023-03-01T03:59:33;18.57;;;13.40;;
16199;SDS011;8207;52.494;4.654;2023-03-01T04:02:00;19.23;;;13.93;;
16199;SDS011;8207;52.494;4.654;2023-03-01T04:04:27;21.23;;;14.93;;
16199;SDS011;8207;52.494;4.654;2023-03-01T04:06:55;20.67;;;14.53;;
16199;SDS011;8207;52.494;4.654;2023-03-01T04:09:22;21.50;;;14.77;;
16199;SDS011;8207;52.494;4.654;2023-03-01T04:11:48;19.13;;;14.00;;
16199;SDS011;8207;52.494;4.654;2023-03-01T04:14:15;22.03;;;15.07;;
16199;SDS011;8207;52.494;4.654;2023-03-01T04:16:42;20.93;;;15.10;;
16199;SDS011;8207;52.494;4.654;2023-03-01T04:19:09;22.20;;;14.80;;
16199;SDS011;8207;52.494;4.654;2023-03-01T04:21:36;19.37;;;14.40;;
16199;SDS011;8207;52.494;4.654;2023-03-01T04:24:04;22.77;;;13.87;;
16199;SDS011;8207;52.494;4.654;2023-03-01T04:26:32;21.90;;;14.97;;
16199;SDS011;8207;52.494;4.654;2023-03-01T04:28:58;22.17;;;14.60;;
16199;SDS011;8207;52.494;4.654;2023-03-01T04:31:25;20.03;;;14.33;;
16199;SDS011;8207;52.494;4.654;2023-03-01T04:33:54;19.93;;;14.53;;
16199;SDS011;8207;52.494;4.654;2023-03-01T04:36:22;18.87;;;13.70;;
16199;SDS011;8207;52.494;4.654;2023-03-01T04:38:50;18.57;;;12.73;;
16199;SDS011;8207;52.494;4.654;2023-03-01T04:41:19;18.27;;;12.77;;
16199;SDS011;8207;52.494;4.654;2023-03-01T04:43:47;18.87;;;13.33;;
16199;SDS011;8207;52.494;4.654;2023-03-01T04:46:15;18.27;;;13.03;;
16199;SDS011;8207;52.494;4.654;2023-03-01T04:48:44;20.80;;;14.33;;
16199;SDS011;8207;52.494;4.654;2023-03-01T04:51:11;18.63;;;12.93;;
16199;SDS011;8207;52.494;4.654;2023-03-01T04:53:39;16.20;;;12.23;;
16199;SDS011;8207;52.494;4.654;2023-03-01T04:56:06;19.13;;;13.10;;
16199;SDS011;8207;52.494;4.654;2023-03-01T04:58:35;20.13;;;13.70;;
16199;SDS011;8207;52.494;4.654;2023-03-01T05:01:07;20.33;;;14.03;;
16199;SDS011;8207;52.494;4.654;2023-03-01T05:03:40;19.50;;;13.67;;
16199;SDS011;8207;52.494;4.654;2023-03-01T05:06:08;19.07;;;13.67;;
16199;SDS011;8207;52.494;4.654;2023-03-01T05:08:35;19.13;;;13.70;;
16199;SDS011;8207;52.494;4.654;2023-03-01T05:11:03;20.07;;;13.97;;
16199;SDS011;8207;52.494;4.654;2023-03-01T05:13:35;19.77;;;13.83;;
16199;SDS011;8207;52.494;4.654;2023-03-01T05:16:03;19.77;;;13.80;;
16199;SDS011;8207;52.494;4.654;2023-03-01T05:18:36;18.83;;;13.90;;
16199;SDS011;8207;52.494;4.654;2023-03-01T05:21:04;20.17;;;14.37;;
16199;SDS011;8207;52.494;4.654;2023-03-01T05:23:32;20.60;;;14.53;;
16199;SDS011;8207;52.494;4.654;2023-03-01T05:26:00;19.03;;;13.43;;
16199;SDS011;8207;52.494;4.654;2023-03-01T05:28:29;21.90;;;14.87;;
16199;SDS011;8207;52.494;4.654;2023-03-01T05:30:57;21.37;;;15.03;;
16199;SDS011;8207;52.494;4.654;2023-03-01T05:33:24;20.60;;;14.27;;
16199;SDS011;8207;52.494;4.654;2023-03-01T05:35:52;21.40;;;15.43;;
16199;SDS011;8207;52.494;4.654;2023-03-01T05:38:20;21.67;;;15.13;;
16199;SDS011;8207;52.494;4.654;2023-03-01T05:40:48;22.63;;;15.30;;
16199;SDS011;8207;52.494;4.654;2023-03-01T05:43:15;22.13;;;15.53;;
16199;SDS011;8207;52.494;4.654;2023-03-01T05:45:43;24.50;;;16.23;;
16199;SDS011;8207;52.494;4.654;2023-03-01T05:48:12;23.83;;;16.07;;
16199;SDS011;8207;52.494;4.654;2023-03-01T05:50:40;23.90;;;16.03;;
16199;SDS011;8207;52.494;4.654;2023-03-01T05:53:09;25.83;;;16.70;;
16199;SDS011;8207;52.494;4.654;2023-03-01T05:55:38;25.10;;;16.77;;
16199;SDS011;8207;52.494;4.654;2023-03-01T05:58:06;24.80;;;17.50;;
16199;SDS011;8207;52.494;4.654;2023-03-01T06:00:35;24.60;;;16.83;;
16199;SDS011;8207;52.494;4.654;2023-03-01T06:03:02;24.13;;;16.33;;
16199;SDS011;8207;52.494;4.654;2023-03-01T06:05:31;22.83;;;16.23;;
16199;SDS011;8207;52.494;4.654;2023-03-01T06:07:58;23.73;;;16.20;;
16199;SDS011;8207;52.494;4.654;2023-03-01T06:10:26;25.30;;;17.23;;
16199;SDS011;8207;52.494;4.654;2023-03-01T06:12:53;26.03;;;17.27;;
16199;SDS011;8207;52.494;4.654;2023-03-01T06:15:20;21.97;;;15.93;;
16199;SDS011;8207;52.494;4.654;2023-03-01T06:17:47;24.77;;;16.73;;
16199;SDS011;8207;52.494;4.654;2023-03-01T06:20:15;24.83;;;17.10;;
16199;SDS011;8207;52.494;4.654;2023-03-01T06:22:45;23.80;;;16.17;;
16199;SDS011;8207;52.494;4.654;2023-03-01T06:25:14;25.93;;;17.30;;
16199;SDS011;8207;52.494;4.654;2023-03-01T06:27:42;24.83;;;16.20;;
16199;SDS011;8207;52.494;4.654;2023-03-01T06:30:11;27.73;;;18.30;;
16199;SDS011;8207;52.494;4.654;2023-03-01T06:32:39;35.40;;;20.27;;
16199;SDS011;8207;52.494;4.654;2023-03-01T06:35:07;34.70;;;20.80;;
16199;SDS011;8207;52.494;4.654;2023-03-01T06:37:34;33.47;;;20.00;;
16199;SDS011;8207;52.494;4.654;2023-03-01T06:40:02;32.33;;;19.87;;
16199;SDS011;8207;52.494;4.654;2023-03-01T06:42:33;38.50;;;22.93;;
16199;SDS011;8207;52.494;4.654;2023-03-01T06:45:00;59.30;;;20.70;;
16199;SDS011;8207;52.494;4.654;2023-03-01T06:47:27;38.97;;;19.17;;
16199;SDS011;8207;52.494;4.654;2023-03-01T06:49:54;27.67;;;17.63;;
16199;SDS011;8207;52.494;4.654;2023-03-01T06:52:20;127.90;;;24.10;;
16199;SDS011;8207;52.494;4.654;2023-03-01T06:54:47;24.83;;;16.90;;
16199;SDS011;8207;52.494;4.654;2023-03-01T06:57:16;24.23;;;16.97;;
16199;SDS011;8207;52.494;4.654;2023-03-01T06:59:43;28.30;;;18.23;;
16199;SDS011;8207;52.494;4.654;2023-03-01T07:02:10;23.17;;;17.13;;
16199;SDS011;8207;52.494;4.654;2023-03-01T07:04:37;25.23;;;17.27;;
16199;SDS011;8207;52.494;4.654;2023-03-01T07:07:04;26.97;;;18.20;;
16199;SDS011;8207;52.494;4.654;2023-03-01T07:09:31;25.77;;;18.03;;
16199;SDS011;8207;52.494;4.654;2023-03-01T07:11:58;23.40;;;16.83;;
16199;SDS011;8207;52.494;4.654;2023-03-01T07:14:26;23.13;;;16.90;;
16199;SDS011;8207;52.494;4.654;2023-03-01T07:16:54;23.70;;;17.57;;
16199;SDS011;8207;52.494;4.654;2023-03-01T07:19:21;25.77;;;18.03;;
16199;SDS011;8207;52.494;4.654;2023-03-01T07:21:48;23.33;;;17.53;;
16199;SDS011;8207;52.494;4.654;2023-03-01T07:24:15;24.83;;;16.53;;
16199;SDS011;8207;52.494;4.654;2023-03-01T07:26:42;28.90;;;18.43;;
16199;SDS011;8207;52.494;4.654;2023-03-01T07:29:09;26.93;;;17.80;;
16199;SDS011;8207;52.494;4.654;2023-03-01T07:31:37;26.20;;;18.67;;
16199;SDS011;8207;52.494;4.654;2023-03-01T07:34:04;31.37;;;20.30;;
16199;SDS011;8207;52.494;4.654;2023-03-01T07:36:31;28.40;;;19.37;;
16199;SDS011;8207;52.494;4.654;2023-03-01T07:38:58;31.00;;;19.53;;
16199;SDS011;8207;52.494;4.654;2023-03-01T07:41:27;29.17;;;20.30;;
16199;SDS011;8207;52.494;4.654;2023-03-01T07:43:54;30.93;;;20.73;;
16199;SDS011;8207;52.494;4.654;2023-03-01T07:46:21;27.90;;;19.87;;
16199;SDS011;8207;52.494;4.654;2023-03-01T07:48:49;31.03;;;20.70;;
16199;SDS011;8207;52.494;4.654;2023-03-01T07:51:16;31.17;;;20.43;;
16199;SDS011;8207;52.494;4.654;2023-03-01T07:53:45;35.40;;;23.53;;
16199;SDS011;8207;52.494;4.654;2023-03-01T07:56:13;31.43;;;20.90;;
16199;SDS011;8207;52.494;4.654;2023-03-01T07:58:43;32.50;;;22.70;;
16199;SDS011;8207;52.494;4.654;2023-03-01T08:01:10;38.17;;;23.40;;
16199;SDS011;8207;52.494;4.654;2023-03-01T08:03:40;35.90;;;23.93;;
16199;SDS011;8207;52.494;4.654;2023-03-01T08:06:10;37.57;;;25.10;;
16199;SDS011;8207;52.494;4.654;2023-03-01T08:08:37;41.73;;;25.63;;
16199;SDS011;8207;52.494;4.654;2023-03-01T08:11:05;37.43;;;23.97;;
16199;SDS011;8207;52.494;4.654;2023-03-01T08:13:33;37.43;;;26.10;;
16199;SDS011;8207;52.494;4.654;2023-03-01T08:16:01;37.13;;;24.10;;
16199;SDS011;8207;52.494;4.654;2023-03-01T08:18:28;37.07;;;24.73;;
16199;SDS011;8207;52.494;4.654;2023-03-01T08:20:55;45.97;;;27.90;;
16199;SDS011;8207;52.494;4.654;2023-03-01T08:23:28;42.47;;;26.60;;
16199;SDS011;8207;52.494;4.654;2023-03-01T08:26:02;42.77;;;27.70;;
16199;SDS011;8207;52.494;4.654;2023-03-01T08:28:30;43.63;;;27.07;;
16199;SDS011;8207;52.494;4.654;2023-03-01T08:30:57;42.30;;;26.03;;
16199;SDS011;8207;52.494;4.654;2023-03-01T08:33:24;42.00;;;28.90;;
16199;SDS011;8207;52.494;4.654;2023-03-01T08:35:51;41.10;;;26.33;;
16199;SDS011;8207;52.494;4.654;2023-03-01T08:38:18;45.23;;;27.43;;
16199;SDS011;8207;52.494;4.654;2023-03-01T08:40:46;43.00;;;25.90;;
16199;SDS011;8207;52.494;4.654;2023-03-01T08:43:13;44.17;;;26.30;;
16199;SDS011;8207;52.494;4.654;2023-03-01T08:45:39;38.80;;;26.13;;
16199;SDS011;8207;52.494;4.654;2023-03-01T08:48:06;38.20;;;27.37;;
16199;SDS011;8207;52.494;4.654;2023-03-01T08:50:33;40.23;;;27.50;;
16199;SDS011;8207;52.494;4.654;2023-03-01T08:53:00;39.60;;;24.67;;
16199;SDS011;8207;52.494;4.654;2023-03-01T08:55:27;41.50;;;27.23;;
16199;SDS011;8207;52.494;4.654;2023-03-01T08:57:56;41.50;;;26.93;;
16199;SDS011;8207;52.494;4.654;2023-03-01T09:00:24;39.87;;;27.90;;
16199;SDS011;8207;52.494;4.654;2023-03-01T09:02:51;42.47;;;28.43;;
16199;SDS011;8207;52.494;4.654;2023-03-01T09:05:18;40.10;;;26.80;;
16199;SDS011;8207;52.494;4.654;2023-03-01T09:07:44;40.60;;;27.20;;
16199;SDS011;8207;52.494;4.654;2023-03-01T09:10:11;43.73;;;29.73;;
16199;SDS011;8207;52.494;4.654;2023-03-01T09:12:38;46.03;;;28.67;;
16199;SDS011;8207;52.494;4.654;2023-03-01T09:15:07;45.23;;;27.77;;
16199;SDS011;8207;52.494;4.654;2023-03-01T09:17:35;42.10;;;27.23;;
16199;SDS011;8207;52.494;4.654;2023-03-01T09:20:02;44.77;;;27.67;;
16199;SDS011;8207;52.494;4.654;2023-03-01T09:22:30;45.27;;;28.77;;
16199;SDS011;8207;52.494;4.654;2023-03-01T09:24:59;42.93;;;27.53;;
16199;SDS011;8207;52.494;4.654;2023-03-01T09:27:27;45.53;;;29.97;;
16199;SDS011;8207;52.494;4.654;2023-03-01T09:29:53;45.00;;;30.03;;
16199;SDS011;8207;52.494;4.654;2023-03-01T09:32:22;44.37;;;30.03;;
16199;SDS011;8207;52.494;4.654;2023-03-01T09:34:49;49.20;;;30.97;;
16199;SDS011;8207;52.494;4.654;2023-03-01T09:37:30;52.70;;;32.40;;
16199;SDS011;8207;52.494;4.654;2023-03-01T09:39:57;46.70;;;30.10;;
16199;SDS011;8207;52.494;4.654;2023-03-01T09:42:24;52.40;;;33.57;;
16199;SDS011;8207;52.494;4.654;2023-03-01T09:44:54;52.33;;;33.00;;
16199;SDS011;8207;52.494;4.654;2023-03-01T09:47:28;50.23;;;33.67;;
16199;SDS011;8207;52.494;4.654;2023-03-01T09:49:58;51.50;;;32.90;;
16199;SDS011;8207;52.494;4.654;2023-03-01T09:52:33;50.93;;;33.17;;
16199;SDS011;8207;52.494;4.654;2023-03-01T09:55:07;50.00;;;31.43;;
16199;SDS011;8207;52.494;4.654;2023-03-01T09:57:38;49.93;;;32.73;;
16199;SDS011;8207;52.494;4.654;2023-03-01T10:00:15;51.27;;;31.87;;
16199;SDS011;8207;52.494;4.654;2023-03-01T10:02:59;45.50;;;30.53;;
16199;SDS011;8207;52.494;4.654;2023-03-01T10:05:37;46.37;;;29.77;;
16199;SDS011;8207;52.494;4.654;2023-03-01T10:08:25;40.77;;;28.80;;
16199;SDS011;8207;52.494;4.654;2023-03-01T10:10:58;43.60;;;29.03;;
16199;SDS011;8207;52.494;4.654;2023-03-01T10:13:26;37.27;;;27.20;;
16199;SDS011;8207;52.494;4.654;2023-03-01T10:16:01;40.63;;;27.67;;
16199;SDS011;8207;52.494;4.654;2023-03-01T10:18:36;39.20;;;26.63;;
16199;SDS011;8207;52.494;4.654;2023-03-01T10:21:09;39.50;;;25.80;;
16199;SDS011;8207;52.494;4.654;2023-03-01T10:23:42;38.20;;;27.10;;
16199;SDS011;8207;52.494;4.654;2023-03-01T10:26:12;34.80;;;24.50;;
16199;SDS011;8207;52.494;4.654;2023-03-01T10:28:55;34.00;;;24.50;;
16199;SDS011;8207;52.494;4.654;2023-03-01T10:31:27;33.23;;;25.13;;
16199;SDS011;8207;52.494;4.654;2023-03-01T10:34:06;35.33;;;23.80;;
16199;SDS011;8207;52.494;4.654;2023-03-01T10:36:35;29.33;;;23.10;;
16199;SDS011;8207;52.494;4.654;2023-03-01T10:39:11;29.27;;;21.97;;
16199;SDS011;8207;52.494;4.654;2023-03-01T10:41:44;22.40;;;19.43;;
16199;SDS011;8207;52.494;4.654;2023-03-01T10:44:34;26.20;;;19.70;;
16199;SDS011;8207;52.494;4.654;2023-03-01T10:47:04;24.53;;;18.90;;
16199;SDS011;8207;52.494;4.654;2023-03-01T10:49:32;22.57;;;18.90;;
16199;SDS011;8207;52.494;4.654;2023-03-01T10:52:11;25.13;;;19.67;;
16199;SDS011;8207;52.494;4.654;2023-03-01T10:54:50;24.57;;;18.90;;
16199;SDS011;8207;52.494;4.654;2023-03-01T10:57:27;20.03;;;16.53;;
16199;SDS011;8207;52.494;4.654;2023-03-01T11:00:09;20.67;;;15.83;;
16199;SDS011;8207;52.494;4.654;2023-03-01T11:02:51;16.70;;;13.50;;
16199;SDS011;8207;52.494;4.654;2023-03-01T11:05:30;19.57;;;15.77;;
16199;SDS011;8207;52.494;4.654;2023-03-01T11:07:59;18.07;;;14.17;;
16199;SDS011;8207;52.494;4.654;2023-03-01T11:10:28;16.70;;;12.87;;
16199;SDS011;8207;52.494;4.654;2023-03-01T11:13:07;15.70;;;12.67;;
16199;SDS011;8207;52.494;4.654;2023-03-01T11:15:39;15.07;;;11.70;;
16199;SDS011;8207;52.494;4.654;2023-03-01T11:18:15;12.20;;;10.17;;
16199;SDS011;8207;52.494;4.654;2023-03-01T11:20:46;12.03;;;10.10;;
16199;SDS011;8207;52.494;4.654;2023-03-01T11:23:16;12.23;;;9.77;;
16199;SDS011;8207;52.494;4.654;2023-03-01T11:25:43;12.40;;;9.27;;
16199;SDS011;8207;52.494;4.654;2023-03-01T11:28:14;13.97;;;9.60;;
16199;SDS011;8207;52.494;4.654;2023-03-01T11:30:45;13.07;;;8.70;;
16199;SDS011;8207;52.494;4.654;2023-03-01T11:33:17;13.07;;;9.67;;
16199;SDS011;8207;52.494;4.654;2023-03-01T11:35:53;14.30;;;10.17;;
16199;SDS011;8207;52.494;4.654;2023-03-01T11:38:26;13.10;;;10.53;;
16199;SDS011;8207;52.494;4.654;2023-03-01T11:40:57;14.73;;;10.33;;
16199;SDS011;8207;52.494;4.654;2023-03-01T11:43:33;11.40;;;9.63;;
16199;SDS011;8207;52.494;4.654;2023-03-01T11:46:11;11.00;;;8.27;;
16199;SDS011;8207;52.494;4.654;2023-03-01T11:48:57;10.67;;;9.13;;
16199;SDS011;8207;52.494;4.654;2023-03-01T11:51:44;10.50;;;9.23;;
16199;SDS011;8207;52.494;4.654;2023-03-01T11:54:24;9.83;;;7.80;;
16199;SDS011;8207;52.494;4.654;2023-03-01T11:57:01;10.37;;;7.90;;
16199;SDS011;8207;52.494;4.654;2023-03-01T11:59:37;11.37;;;8.70;;
16199;SDS011;8207;52.494;4.654;2023-03-01T12:02:36;8.87;;;7.87;;
16199;SDS011;8207;52.494;4.654;2023-03-01T12:05:24;9.47;;;7.13;;
16199;SDS011;8207;52.494;4.654;2023-03-01T12:08:12;8.77;;;7.73;;
16199;SDS011;8207;52.494;4.654;2023-03-01T12:10:43;8.47;;;7.57;;
16199;SDS011;8207;52.494;4.654;2023-03-01T12:13:26;11.00;;;7.40;;
16199;SDS011;8207;52.494;4.654;2023-03-01T12:16:20;11.37;;;7.97;;
16199;SDS011;8207;52.494;4.654;2023-03-01T12:19:20;11.67;;;7.50;;
16199;SDS011;8207;52.494;4.654;2023-03-01T12:22:04;11.03;;;8.37;;
16199;SDS011;8207;52.494;4.654;2023-03-01T12:27:36;10.80;;;8.60;;
16199;SDS011;8207;52.494;4.654;2023-03-01T12:30:19;9.93;;;8.47;;
16199;SDS011;8207;52.494;4.654;2023-03-01T12:32:56;12.77;;;8.43;;
16199;SDS011;8207;52.494;4.654;2023-03-01T12:35:44;10.17;;;8.67;;
16199;SDS011;8207;52.494;4.654;2023-03-01T12:38:37;11.33;;;8.57;;
16199;SDS011;8207;52.494;4.654;2023-03-01T12:44:07;11.00;;;9.00;;
16199;SDS011;8207;52.494;4.654;2023-03-01T12:46:45;11.80;;;8.77;;
16199;SDS011;8207;52.494;4.654;2023-03-01T12:49:24;11.37;;;8.87;;
16199;SDS011;8207;52.494;4.654;2023-03-01T12:51:59;15.87;;;9.70;;
16199;SDS011;8207;52.494;4.654;2023-03-01T12:54:35;12.87;;;9.00;;
16199;SDS011;8207;52.494;4.654;2023-03-01T12:57:06;13.40;;;8.90;;
16199;SDS011;8207;52.494;4.654;2023-03-01T12:59:38;11.40;;;8.80;;
16199;SDS011;8207;52.494;4.654;2023-03-01T13:02:10;12.10;;;9.03;;
16199;SDS011;8207;52.494;4.654;2023-03-01T13:04:50;12.50;;;9.80;;
16199;SDS011;8207;52.494;4.654;2023-03-01T13:07:34;11.60;;;8.73;;
16199;SDS011;8207;52.494;4.654;2023-03-01T13:10:15;9.80;;;7.67;;
16199;SDS011;8207;52.494;4.654;2023-03-01T13:13:00;13.87;;;8.87;;
16199;SDS011;8207;52.494;4.654;2023-03-01T13:15:32;11.73;;;8.50;;
16199;SDS011;8207;52.494;4.654;2023-03-01T13:18:00;11.60;;;8.47;;
16199;SDS011;8207;52.494;4.654;2023-03-01T13:20:30;11.20;;;8.47;;
16199;SDS011;8207;52.494;4.654;2023-03-01T13:23:04;12.57;;;9.23;;
16199;SDS011;8207;52.494;4.654;2023-03-01T13:25:34;13.27;;;9.80;;
16199;SDS011;8207;52.494;4.654;2023-03-01T13:37:13;11.13;;;9.27;;
16199;SDS011;8207;52.494;4.654;2023-03-01T13:39:54;14.57;;;10.40;;
16199;SDS011;8207;52.494;4.654;2023-03-01T13:45:22;13.23;;;10.40;;
16199;SDS011;8207;52.494;4.654;2023-03-01T13:47:59;14.20;;;10.43;;
16199;SDS011;8207;52.494;4.654;2023-03-01T13:50:31;14.47;;;10.27;;
16199;SDS011;8207;52.494;4.654;2023-03-01T13:53:03;15.60;;;11.10;;
16199;SDS011;8207;52.494;4.654;2023-03-01T13:55:35;15.07;;;11.37;;
16199;SDS011;8207;52.494;4.654;2023-03-01T13:58:13;16.83;;;12.47;;
16199;SDS011;8207;52.494;4.654;2023-03-01T14:00:46;17.47;;;13.23;;
16199;SDS011;8207;52.494;4.654;2023-03-01T14:03:14;22.03;;;13.93;;
16199;SDS011;8207;52.494;4.654;2023-03-01T14:05:43;24.17;;;16.07;;
16199;SDS011;8207;52.494;4.654;2023-03-01T14:08:25;21.73;;;14.93;;
16199;SDS011;8207;52.494;4.654;2023-03-01T14:10:56;21.77;;;14.03;;
16199;SDS011;8207;52.494;4.654;2023-03-01T14:13:54;19.57;;;13.63;;
16199;SDS011;8207;52.494;4.654;2023-03-01T14:16:48;17.67;;;12.80;;
16199;SDS011;8207;52.494;4.654;2023-03-01T14:19:24;20.17;;;14.23;;
16199;SDS011;8207;52.494;4.654;2023-03-01T14:21:58;20.50;;;13.97;;
16199;SDS011;8207;52.494;4.654;2023-03-01T14:24:29;17.73;;;13.40;;
16199;SDS011;8207;52.494;4.654;2023-03-01T14:26:59;17.70;;;13.13;;
16199;SDS011;8207;52.494;4.654;2023-03-01T14:29:28;20.00;;;12.73;;
16199;SDS011;8207;52.494;4.654;2023-03-01T14:32:10;17.87;;;12.40;;
16199;SDS011;8207;52.494;4.654;2023-03-01T14:34:42;17.83;;;13.37;;
16199;SDS011;8207;52.494;4.654;2023-03-01T14:37:11;19.00;;;13.63;;
16199;SDS011;8207;52.494;4.654;2023-03-01T14:39:44;18.27;;;13.07;;
16199;SDS011;8207;52.494;4.654;2023-03-01T14:42:11;17.97;;;13.60;;
16199;SDS011;8207;52.494;4.654;2023-03-01T14:44:40;14.90;;;11.60;;
16199;SDS011;8207;52.494;4.654;2023-03-01T14:47:11;20.20;;;13.37;;
16199;SDS011;8207;52.494;4.654;2023-03-01T14:49:40;16.43;;;11.70;;
16199;SDS011;8207;52.494;4.654;2023-03-01T14:52:17;14.30;;;11.23;;
16199;SDS011;8207;52.494;4.654;2023-03-01T14:54:46;15.73;;;11.50;;
16199;SDS011;8207;52.494;4.654;2023-03-01T14:57:16;18.77;;;12.67;;
16199;SDS011;8207;52.494;4.654;2023-03-01T14:59:46;16.73;;;11.93;;
16199;SDS011;8207;52.494;4.654;2023-03-01T15:02:17;14.27;;;11.83;;
16199;SDS011;8207;52.494;4.654;2023-03-01T15:04:46;16.23;;;12.33;;
16199;SDS011;8207;52.494;4.654;2023-03-01T15:07:15;17.43;;;12.10;;
16199;SDS011;8207;52.494;4.654;2023-03-01T15:09:42;15.87;;;11.97;;
16199;SDS011;8207;52.494;4.654;2023-03-01T15:18:02;15.23;;;11.43;;
16199;SDS011;8207;52.494;4.654;2023-03-01T15:20:31;15.00;;;11.63;;